sensor_id;sensor_type;location;lat;lon;timestamp;P1;durP1;ratioP1;P2;durP2;ratioP2
67160;SDS011;54088;52.238;21.104;2022-12-11T00:01:08;56.78;;;26.92;;
67160;SDS011;54088;52.238;21.104;2022-12-11T00:03:39;53.88;;;26.00;;
67160;SDS011;54088;52.238;21.104;2022-12-11T00:06:05;63.75;;;34.90;;
67160;SDS011;54088;52.238;21.104;2022-12-11T00:08:36;57.97;;;26.60;;
67160;SDS011;54088;52.238;21.104;2022-12-11T00:11:02;54.42;;;25.95;;
67160;SDS011;54088;52.238;21.104;2022-12-11T00:13:28;61.97;;;29.73;;
67160;SDS011;54088;52.238;21.104;2022-12-11T00:15:54;55.90;;;27.08;;
67160;SDS011;54088;52.238;21.104;2022-12-11T00:18:22;56.05;;;24.55;;
67160;SDS011;54088;52.238;21.104;2022-12-11T00:20:47;55.33;;;26.08;;
67160;SDS011;54088;52.238;21.104;2022-12-11T00:23:13;58.40;;;27.10;;
67160;SDS011;54088;52.238;21.104;2022-12-11T00:25:42;53.38;;;27.30;;
67160;SDS011;54088;52.238;21.104;2022-12-11T00:30:41;53.72;;;25.20;;
67160;SDS011;54088;52.238;21.104;2022-12-11T00:33:08;57.38;;;27.00;;
67160;SDS011;54088;52.238;21.104;2022-12-11T00:35:40;54.38;;;25.08;;
67160;SDS011;54088;52.238;21.104;2022-12-11T00:38:07;60.80;;;26.02;;
67160;SDS011;54088;52.238;21.104;2022-12-11T00:40:37;62.90;;;30.00;;
67160;SDS011;54088;52.238;21.104;2022-12-11T00:43:03;60.63;;;25.70;;
67160;SDS011;54088;52.238;21.104;2022-12-11T00:45:29;66.78;;;32.53;;
67160;SDS011;54088;52.238;21.104;2022-12-11T00:47:55;59.53;;;26.73;;
67160;SDS011;54088;52.238;21.104;2022-12-11T00:50:20;67.32;;;28.52;;
67160;SDS011;54088;52.238;21.104;2022-12-11T00:52:46;59.85;;;26.13;;
67160;SDS011;54088;52.238;21.104;2022-12-11T00:55:12;57.92;;;25.50;;
67160;SDS011;54088;52.238;21.104;2022-12-11T00:57:37;55.80;;;24.77;;
67160;SDS011;54088;52.238;21.104;2022-12-11T01:00:04;53.00;;;24.67;;
67160;SDS011;54088;52.238;21.104;2022-12-11T01:02:33;58.00;;;25.65;;
67160;SDS011;54088;52.238;21.104;2022-12-11T01:04:59;63.75;;;28.33;;
67160;SDS011;54088;52.238;21.104;2022-12-11T01:07:24;62.92;;;27.27;;
67160;SDS011;54088;52.238;21.104;2022-12-11T01:09:50;69.30;;;27.00;;
67160;SDS011;54088;52.238;21.104;2022-12-11T01:12:35;66.88;;;29.67;;
67160;SDS011;54088;52.238;21.104;2022-12-11T01:15:00;66.88;;;25.92;;
67160;SDS011;54088;52.238;21.104;2022-12-11T01:17:26;61.05;;;23.52;;
67160;SDS011;54088;52.238;21.104;2022-12-11T01:19:52;57.67;;;25.70;;
67160;SDS011;54088;52.238;21.104;2022-12-11T01:22:18;67.80;;;26.38;;
67160;SDS011;54088;52.238;21.104;2022-12-11T01:24:44;64.18;;;25.10;;
67160;SDS011;54088;52.238;21.104;2022-12-11T01:27:10;62.67;;;25.23;;
67160;SDS011;54088;52.238;21.104;2022-12-11T01:29:36;62.13;;;24.45;;
67160;SDS011;54088;52.238;21.104;2022-12-11T01:32:01;58.47;;;23.50;;
67160;SDS011;54088;52.238;21.104;2022-12-11T01:34:28;64.25;;;24.70;;
67160;SDS011;54088;52.238;21.104;2022-12-11T01:36:54;62.90;;;24.30;;
67160;SDS011;54088;52.238;21.104;2022-12-11T01:39:20;59.13;;;24.13;;
67160;SDS011;54088;52.238;21.104;2022-12-11T01:41:45;63.65;;;25.90;;
67160;SDS011;54088;52.238;21.104;2022-12-11T01:46:40;67.03;;;28.40;;
67160;SDS011;54088;52.238;21.104;2022-12-11T01:49:08;67.15;;;25.05;;
67160;SDS011;54088;52.238;21.104;2022-12-11T01:51:39;62.55;;;25.08;;
67160;SDS011;54088;52.238;21.104;2022-12-11T01:54:12;55.30;;;24.38;;
67160;SDS011;54088;52.238;21.104;2022-12-11T01:56:41;58.20;;;23.95;;
67160;SDS011;54088;52.238;21.104;2022-12-11T01:59:09;55.08;;;23.42;;
67160;SDS011;54088;52.238;21.104;2022-12-11T02:01:53;53.20;;;22.65;;
67160;SDS011;54088;52.238;21.104;2022-12-11T02:04:26;53.90;;;22.10;;
67160;SDS011;54088;52.238;21.104;2022-12-11T02:06:53;62.17;;;23.90;;
67160;SDS011;54088;52.238;21.104;2022-12-11T02:09:21;52.17;;;21.42;;
67160;SDS011;54088;52.238;21.104;2022-12-11T02:12:09;48.28;;;22.58;;
67160;SDS011;54088;52.238;21.104;2022-12-11T02:14:42;53.75;;;23.38;;
67160;SDS011;54088;52.238;21.104;2022-12-11T02:22:27;54.88;;;23.73;;
67160;SDS011;54088;52.238;21.104;2022-12-11T02:30:10;50.75;;;24.45;;
67160;SDS011;54088;52.238;21.104;2022-12-11T02:32:54;55.42;;;23.05;;
67160;SDS011;54088;52.238;21.104;2022-12-11T02:35:22;45.40;;;19.50;;
67160;SDS011;54088;52.238;21.104;2022-12-11T02:37:55;44.40;;;20.48;;
67160;SDS011;54088;52.238;21.104;2022-12-11T02:40:24;45.15;;;19.40;;
67160;SDS011;54088;52.238;21.104;2022-12-11T02:42:54;52.45;;;24.80;;
67160;SDS011;54088;52.238;21.104;2022-12-11T02:45:22;47.97;;;21.13;;
67160;SDS011;54088;52.238;21.104;2022-12-11T02:47:50;55.92;;;23.63;;
67160;SDS011;54088;52.238;21.104;2022-12-11T02:50:17;44.67;;;19.52;;
67160;SDS011;54088;52.238;21.104;2022-12-11T02:52:45;50.80;;;20.83;;
67160;SDS011;54088;52.238;21.104;2022-12-11T02:55:14;43.42;;;20.63;;
67160;SDS011;54088;52.238;21.104;2022-12-11T02:57:42;48.50;;;24.23;;
67160;SDS011;54088;52.238;21.104;2022-12-11T03:00:15;55.50;;;25.13;;
67160;SDS011;54088;52.238;21.104;2022-12-11T03:02:41;47.13;;;21.40;;
67160;SDS011;54088;52.238;21.104;2022-12-11T03:05:09;53.55;;;25.38;;
67160;SDS011;54088;52.238;21.104;2022-12-11T03:07:37;52.90;;;23.45;;
67160;SDS011;54088;52.238;21.104;2022-12-11T03:10:05;47.45;;;20.55;;
67160;SDS011;54088;52.238;21.104;2022-12-11T03:12:33;50.38;;;22.13;;
67160;SDS011;54088;52.238;21.104;2022-12-11T03:15:02;49.63;;;21.17;;
67160;SDS011;54088;52.238;21.104;2022-12-11T03:20:23;42.50;;;20.80;;
67160;SDS011;54088;52.238;21.104;2022-12-11T03:23:06;44.97;;;21.50;;
67160;SDS011;54088;52.238;21.104;2022-12-11T03:25:43;40.45;;;18.60;;
67160;SDS011;54088;52.238;21.104;2022-12-11T03:31:06;41.80;;;20.42;;
67160;SDS011;54088;52.238;21.104;2022-12-11T03:33:36;42.30;;;20.27;;
67160;SDS011;54088;52.238;21.104;2022-12-11T03:38:38;36.88;;;17.08;;
67160;SDS011;54088;52.238;21.104;2022-12-11T03:41:09;43.72;;;19.10;;
67160;SDS011;54088;52.238;21.104;2022-12-11T03:43:38;41.00;;;20.10;;
67160;SDS011;54088;52.238;21.104;2022-12-11T03:46:05;38.70;;;17.08;;
67160;SDS011;54088;52.238;21.104;2022-12-11T03:48:34;36.72;;;17.52;;
67160;SDS011;54088;52.238;21.104;2022-12-11T03:51:05;42.47;;;18.92;;
67160;SDS011;54088;52.238;21.104;2022-12-11T03:53:32;37.95;;;16.73;;
67160;SDS011;54088;52.238;21.104;2022-12-11T03:55:59;35.53;;;15.90;;
67160;SDS011;54088;52.238;21.104;2022-12-11T03:58:28;33.35;;;16.25;;
67160;SDS011;54088;52.238;21.104;2022-12-11T04:00:54;36.65;;;16.58;;
67160;SDS011;54088;52.238;21.104;2022-12-11T04:03:20;37.00;;;16.58;;
67160;SDS011;54088;52.238;21.104;2022-12-11T04:05:47;35.65;;;16.60;;
67160;SDS011;54088;52.238;21.104;2022-12-11T04:08:15;40.05;;;19.15;;
67160;SDS011;54088;52.238;21.104;2022-12-11T04:10:48;25.15;;;12.90;;
67160;SDS011;54088;52.238;21.104;2022-12-11T04:13:38;40.97;;;18.38;;
67160;SDS011;54088;52.238;21.104;2022-12-11T04:16:04;38.60;;;19.63;;
67160;SDS011;54088;52.238;21.104;2022-12-11T04:18:31;36.17;;;18.25;;
67160;SDS011;54088;52.238;21.104;2022-12-11T04:21:15;39.42;;;18.25;;
67160;SDS011;54088;52.238;21.104;2022-12-11T04:23:59;40.47;;;19.65;;
67160;SDS011;54088;52.238;21.104;2022-12-11T04:26:40;38.10;;;18.15;;
67160;SDS011;54088;52.238;21.104;2022-12-11T04:29:06;42.70;;;19.63;;
67160;SDS011;54088;52.238;21.104;2022-12-11T04:31:32;42.60;;;20.40;;
67160;SDS011;54088;52.238;21.104;2022-12-11T04:33:58;42.03;;;20.23;;
67160;SDS011;54088;52.238;21.104;2022-12-11T04:36:23;47.28;;;22.67;;
67160;SDS011;54088;52.238;21.104;2022-12-11T04:38:49;39.00;;;18.88;;
67160;SDS011;54088;52.238;21.104;2022-12-11T04:41:15;43.10;;;20.63;;
67160;SDS011;54088;52.238;21.104;2022-12-11T04:43:41;42.00;;;20.40;;
67160;SDS011;54088;52.238;21.104;2022-12-11T04:46:14;45.90;;;21.83;;
67160;SDS011;54088;52.238;21.104;2022-12-11T04:48:42;43.60;;;21.55;;
67160;SDS011;54088;52.238;21.104;2022-12-11T04:51:09;40.30;;;22.33;;
67160;SDS011;54088;52.238;21.104;2022-12-11T04:53:35;47.60;;;20.88;;
67160;SDS011;54088;52.238;21.104;2022-12-11T04:56:05;44.35;;;22.25;;
67160;SDS011;54088;52.238;21.104;2022-12-11T04:58:32;43.65;;;21.58;;
67160;SDS011;54088;52.238;21.104;2022-12-11T05:00:59;38.42;;;19.33;;
67160;SDS011;54088;52.238;21.104;2022-12-11T05:03:30;41.08;;;19.85;;
67160;SDS011;54088;52.238;21.104;2022-12-11T05:05:56;39.33;;;23.20;;
67160;SDS011;54088;52.238;21.104;2022-12-11T05:08:21;35.17;;;16.85;;
67160;SDS011;54088;52.238;21.104;2022-12-11T05:10:57;37.15;;;19.17;;
67160;SDS011;54088;52.238;21.104;2022-12-11T05:13:24;39.55;;;21.35;;
67160;SDS011;54088;52.238;21.104;2022-12-11T05:15:51;42.20;;;20.10;;
67160;SDS011;54088;52.238;21.104;2022-12-11T05:18:16;44.03;;;21.30;;
67160;SDS011;54088;52.238;21.104;2022-12-11T05:20:42;39.38;;;20.35;;
67160;SDS011;54088;52.238;21.104;2022-12-11T05:23:08;40.05;;;17.73;;
67160;SDS011;54088;52.238;21.104;2022-12-11T05:25:33;39.08;;;20.75;;
67160;SDS011;54088;52.238;21.104;2022-12-11T05:27:59;37.70;;;20.10;;
67160;SDS011;54088;52.238;21.104;2022-12-11T05:30:24;39.90;;;19.50;;
67160;SDS011;54088;52.238;21.104;2022-12-11T05:32:50;40.90;;;20.13;;
67160;SDS011;54088;52.238;21.104;2022-12-11T05:35:16;34.35;;;16.60;;
67160;SDS011;54088;52.238;21.104;2022-12-11T05:37:42;36.63;;;17.88;;
67160;SDS011;54088;52.238;21.104;2022-12-11T05:40:07;38.30;;;18.52;;
67160;SDS011;54088;52.238;21.104;2022-12-11T05:42:36;34.60;;;17.48;;
67160;SDS011;54088;52.238;21.104;2022-12-11T05:45:02;38.00;;;18.92;;
67160;SDS011;54088;52.238;21.104;2022-12-11T05:47:29;37.22;;;17.58;;
67160;SDS011;54088;52.238;21.104;2022-12-11T05:49:55;36.60;;;17.63;;
67160;SDS011;54088;52.238;21.104;2022-12-11T05:52:21;33.58;;;16.15;;
67160;SDS011;54088;52.238;21.104;2022-12-11T05:54:47;33.72;;;18.58;;
67160;SDS011;54088;52.238;21.104;2022-12-11T05:57:14;30.55;;;15.48;;
67160;SDS011;54088;52.238;21.104;2022-12-11T05:59:40;32.45;;;17.75;;
67160;SDS011;54088;52.238;21.104;2022-12-11T06:02:06;35.90;;;16.05;;
67160;SDS011;54088;52.238;21.104;2022-12-11T06:04:32;31.48;;;16.08;;
67160;SDS011;54088;52.238;21.104;2022-12-11T06:06:57;27.65;;;14.18;;
67160;SDS011;54088;52.238;21.104;2022-12-11T06:09:23;26.42;;;14.52;;
67160;SDS011;54088;52.238;21.104;2022-12-11T06:11:48;28.05;;;14.07;;
67160;SDS011;54088;52.238;21.104;2022-12-11T06:14:14;35.55;;;17.17;;
67160;SDS011;54088;52.238;21.104;2022-12-11T06:16:40;28.27;;;14.45;;
67160;SDS011;54088;52.238;21.104;2022-12-11T06:19:06;25.80;;;13.55;;
67160;SDS011;54088;52.238;21.104;2022-12-11T06:21:36;27.85;;;14.27;;
67160;SDS011;54088;52.238;21.104;2022-12-11T06:24:02;27.25;;;13.85;;
67160;SDS011;54088;52.238;21.104;2022-12-11T06:26:29;24.80;;;15.00;;
67160;SDS011;54088;52.238;21.104;2022-12-11T06:28:56;28.35;;;13.77;;
67160;SDS011;54088;52.238;21.104;2022-12-11T06:31:21;24.83;;;12.75;;
67160;SDS011;54088;52.238;21.104;2022-12-11T06:33:47;26.30;;;13.30;;
67160;SDS011;54088;52.238;21.104;2022-12-11T06:36:14;27.25;;;13.73;;
67160;SDS011;54088;52.238;21.104;2022-12-11T06:38:41;27.52;;;13.65;;
67160;SDS011;54088;52.238;21.104;2022-12-11T06:41:07;28.48;;;14.25;;
67160;SDS011;54088;52.238;21.104;2022-12-11T06:43:35;24.45;;;12.75;;
67160;SDS011;54088;52.238;21.104;2022-12-11T06:46:02;22.55;;;12.68;;
67160;SDS011;54088;52.238;21.104;2022-12-11T06:48:29;25.52;;;14.05;;
67160;SDS011;54088;52.238;21.104;2022-12-11T06:50:55;24.55;;;13.13;;
67160;SDS011;54088;52.238;21.104;2022-12-11T06:53:21;22.67;;;11.95;;
67160;SDS011;54088;52.238;21.104;2022-12-11T06:55:47;21.73;;;12.85;;
67160;SDS011;54088;52.238;21.104;2022-12-11T06:58:13;24.70;;;12.23;;
67160;SDS011;54088;52.238;21.104;2022-12-11T07:00:38;28.45;;;15.68;;
67160;SDS011;54088;52.238;21.104;2022-12-11T07:03:04;23.95;;;12.25;;
67160;SDS011;54088;52.238;21.104;2022-12-11T07:05:31;25.83;;;12.98;;
67160;SDS011;54088;52.238;21.104;2022-12-11T07:07:57;20.85;;;10.35;;
67160;SDS011;54088;52.238;21.104;2022-12-11T07:10:23;22.50;;;11.85;;
67160;SDS011;54088;52.238;21.104;2022-12-11T07:12:53;26.45;;;13.25;;
67160;SDS011;54088;52.238;21.104;2022-12-11T07:15:19;25.33;;;13.55;;
67160;SDS011;54088;52.238;21.104;2022-12-11T07:17:45;21.73;;;12.10;;
67160;SDS011;54088;52.238;21.104;2022-12-11T07:20:10;23.73;;;11.20;;
67160;SDS011;54088;52.238;21.104;2022-12-11T07:22:36;27.55;;;12.43;;
67160;SDS011;54088;52.238;21.104;2022-12-11T07:25:02;24.95;;;12.43;;
67160;SDS011;54088;52.238;21.104;2022-12-11T07:27:27;21.83;;;12.15;;
67160;SDS011;54088;52.238;21.104;2022-12-11T07:29:53;24.13;;;12.50;;
67160;SDS011;54088;52.238;21.104;2022-12-11T07:32:19;25.73;;;14.30;;
67160;SDS011;54088;52.238;21.104;2022-12-11T07:34:47;22.48;;;12.40;;
67160;SDS011;54088;52.238;21.104;2022-12-11T07:37:12;19.42;;;10.23;;
67160;SDS011;54088;52.238;21.104;2022-12-11T07:39:38;23.70;;;11.43;;
67160;SDS011;54088;52.238;21.104;2022-12-11T07:42:04;25.42;;;12.35;;
67160;SDS011;54088;52.238;21.104;2022-12-11T07:44:29;25.50;;;12.52;;
67160;SDS011;54088;52.238;21.104;2022-12-11T07:46:55;25.45;;;12.90;;
67160;SDS011;54088;52.238;21.104;2022-12-11T07:49:21;29.10;;;13.80;;
67160;SDS011;54088;52.238;21.104;2022-12-11T07:51:46;28.52;;;13.93;;
67160;SDS011;54088;52.238;21.104;2022-12-11T07:54:13;29.02;;;14.82;;
67160;SDS011;54088;52.238;21.104;2022-12-11T07:56:41;31.60;;;15.63;;
67160;SDS011;54088;52.238;21.104;2022-12-11T07:59:08;28.52;;;15.02;;
67160;SDS011;54088;52.238;21.104;2022-12-11T08:01:35;31.58;;;16.50;;
67160;SDS011;54088;52.238;21.104;2022-12-11T08:04:02;37.75;;;18.02;;
67160;SDS011;54088;52.238;21.104;2022-12-11T08:06:30;30.92;;;15.30;;
67160;SDS011;54088;52.238;21.104;2022-12-11T08:08:57;29.30;;;15.63;;
67160;SDS011;54088;52.238;21.104;2022-12-11T08:11:25;31.83;;;17.92;;
67160;SDS011;54088;52.238;21.104;2022-12-11T08:13:52;29.98;;;15.50;;
67160;SDS011;54088;52.238;21.104;2022-12-11T08:16:18;31.83;;;16.58;;
67160;SDS011;54088;52.238;21.104;2022-12-11T08:18:44;32.60;;;14.13;;
67160;SDS011;54088;52.238;21.104;2022-12-11T08:21:12;29.60;;;16.08;;
67160;SDS011;54088;52.238;21.104;2022-12-11T08:23:42;32.70;;;16.45;;
67160;SDS011;54088;52.238;21.104;2022-12-11T08:26:09;31.58;;;16.02;;
67160;SDS011;54088;52.238;21.104;2022-12-11T08:28:37;28.13;;;15.60;;
67160;SDS011;54088;52.238;21.104;2022-12-11T08:31:04;33.40;;;17.70;;
67160;SDS011;54088;52.238;21.104;2022-12-11T08:33:32;28.75;;;14.88;;
67160;SDS011;54088;52.238;21.104;2022-12-11T08:35:57;28.95;;;14.32;;
67160;SDS011;54088;52.238;21.104;2022-12-11T08:38:26;29.48;;;14.65;;
67160;SDS011;54088;52.238;21.104;2022-12-11T08:40:51;32.78;;;16.77;;
67160;SDS011;54088;52.238;21.104;2022-12-11T08:43:17;26.75;;;13.65;;
67160;SDS011;54088;52.238;21.104;2022-12-11T08:45:43;31.63;;;14.93;;
67160;SDS011;54088;52.238;21.104;2022-12-11T08:48:09;30.75;;;15.27;;
67160;SDS011;54088;52.238;21.104;2022-12-11T08:50:35;27.95;;;14.77;;
67160;SDS011;54088;52.238;21.104;2022-12-11T08:53:01;29.63;;;16.33;;
67160;SDS011;54088;52.238;21.104;2022-12-11T08:55:27;32.00;;;16.35;;
67160;SDS011;54088;52.238;21.104;2022-12-11T08:57:53;28.00;;;14.07;;
67160;SDS011;54088;52.238;21.104;2022-12-11T09:00:18;25.42;;;14.15;;
67160;SDS011;54088;52.238;21.104;2022-12-11T09:02:44;28.00;;;14.23;;
67160;SDS011;54088;52.238;21.104;2022-12-11T09:05:09;24.73;;;13.40;;
67160;SDS011;54088;52.238;21.104;2022-12-11T09:07:35;26.77;;;14.20;;
67160;SDS011;54088;52.238;21.104;2022-12-11T09:10:03;25.70;;;13.40;;
67160;SDS011;54088;52.238;21.104;2022-12-11T09:12:31;26.08;;;13.18;;
67160;SDS011;54088;52.238;21.104;2022-12-11T09:14:57;22.45;;;13.35;;
67160;SDS011;54088;52.238;21.104;2022-12-11T09:17:23;24.13;;;12.88;;
67160;SDS011;54088;52.238;21.104;2022-12-11T09:19:48;26.15;;;13.13;;
67160;SDS011;54088;52.238;21.104;2022-12-11T09:22:14;28.85;;;14.25;;
67160;SDS011;54088;52.238;21.104;2022-12-11T09:24:40;26.33;;;13.48;;
67160;SDS011;54088;52.238;21.104;2022-12-11T09:27:05;27.42;;;13.93;;
67160;SDS011;54088;52.238;21.104;2022-12-11T09:29:31;26.40;;;12.60;;
67160;SDS011;54088;52.238;21.104;2022-12-11T09:31:57;26.00;;;14.85;;
67160;SDS011;54088;52.238;21.104;2022-12-11T09:34:22;27.40;;;14.18;;
67160;SDS011;54088;52.238;21.104;2022-12-11T09:40:10;27.02;;;13.45;;
67160;SDS011;54088;52.238;21.104;2022-12-11T09:42:48;24.55;;;13.20;;
67160;SDS011;54088;52.238;21.104;2022-12-11T09:45:18;32.72;;;14.82;;
67160;SDS011;54088;52.238;21.104;2022-12-11T09:47:46;27.05;;;14.48;;
67160;SDS011;54088;52.238;21.104;2022-12-11T09:55:28;26.45;;;14.13;;
67160;SDS011;54088;52.238;21.104;2022-12-11T09:58:05;32.42;;;14.93;;
67160;SDS011;54088;52.238;21.104;2022-12-11T10:03:27;32.42;;;16.73;;
67160;SDS011;54088;52.238;21.104;2022-12-11T10:08:42;32.70;;;15.65;;
67160;SDS011;54088;52.238;21.104;2022-12-11T10:14:28;29.00;;;14.15;;
67160;SDS011;54088;52.238;21.104;2022-12-11T10:19:49;24.70;;;12.10;;
67160;SDS011;54088;52.238;21.104;2022-12-11T10:22:17;30.30;;;13.18;;
67160;SDS011;54088;52.238;21.104;2022-12-11T10:24:53;25.02;;;12.68;;
67160;SDS011;54088;52.238;21.104;2022-12-11T10:27:24;30.30;;;14.52;;
67160;SDS011;54088;52.238;21.104;2022-12-11T10:30:19;24.25;;;12.95;;
67160;SDS011;54088;52.238;21.104;2022-12-11T10:38:15;27.77;;;15.05;;
67160;SDS011;54088;52.238;21.104;2022-12-11T10:40:46;26.70;;;14.20;;
67160;SDS011;54088;52.238;21.104;2022-12-11T10:43:15;29.55;;;14.38;;
67160;SDS011;54088;52.238;21.104;2022-12-11T10:45:49;25.75;;;13.05;;
67160;SDS011;54088;52.238;21.104;2022-12-11T10:48:18;25.98;;;13.23;;
67160;SDS011;54088;52.238;21.104;2022-12-11T10:50:53;24.52;;;12.52;;
67160;SDS011;54088;52.238;21.104;2022-12-11T10:53:27;29.35;;;14.55;;
67160;SDS011;54088;52.238;21.104;2022-12-11T10:55:54;24.70;;;12.70;;
67160;SDS011;54088;52.238;21.104;2022-12-11T10:58:23;23.70;;;13.00;;
67160;SDS011;54088;52.238;21.104;2022-12-11T11:04:02;21.05;;;11.40;;
67160;SDS011;54088;52.238;21.104;2022-12-11T11:06:39;16.60;;;9.43;;
67160;SDS011;54088;52.238;21.104;2022-12-11T11:09:26;20.70;;;10.38;;
67160;SDS011;54088;52.238;21.104;2022-12-11T11:12:00;22.13;;;10.98;;
67160;SDS011;54088;52.238;21.104;2022-12-11T11:14:26;19.58;;;10.43;;
67160;SDS011;54088;52.238;21.104;2022-12-11T11:16:54;20.33;;;10.57;;
67160;SDS011;54088;52.238;21.104;2022-12-11T11:19:22;19.98;;;10.90;;
67160;SDS011;54088;52.238;21.104;2022-12-11T11:21:55;22.15;;;11.98;;
67160;SDS011;54088;52.238;21.104;2022-12-11T11:24:29;21.47;;;10.90;;
67160;SDS011;54088;52.238;21.104;2022-12-11T11:27:00;20.80;;;11.25;;
67160;SDS011;54088;52.238;21.104;2022-12-11T11:29:28;21.52;;;11.73;;
67160;SDS011;54088;52.238;21.104;2022-12-11T11:32:00;19.63;;;10.73;;
67160;SDS011;54088;52.238;21.104;2022-12-11T11:34:48;17.60;;;10.15;;
67160;SDS011;54088;52.238;21.104;2022-12-11T11:37:33;21.95;;;11.25;;
67160;SDS011;54088;52.238;21.104;2022-12-11T11:40:05;15.93;;;8.30;;
67160;SDS011;54088;52.238;21.104;2022-12-11T11:43:14;18.58;;;9.90;;
67160;SDS011;54088;52.238;21.104;2022-12-11T11:49:15;20.10;;;11.23;;
67160;SDS011;54088;52.238;21.104;2022-12-11T11:57:22;20.33;;;10.05;;
67160;SDS011;54088;52.238;21.104;2022-12-11T11:59:58;21.73;;;11.10;;
67160;SDS011;54088;52.238;21.104;2022-12-11T12:02:34;19.23;;;8.88;;
67160;SDS011;54088;52.238;21.104;2022-12-11T12:05:00;18.60;;;10.55;;
67160;SDS011;54088;52.238;21.104;2022-12-11T12:10:21;17.50;;;10.15;;
67160;SDS011;54088;52.238;21.104;2022-12-11T12:15:53;20.88;;;9.98;;
67160;SDS011;54088;52.238;21.104;2022-12-11T12:26:33;21.55;;;10.27;;
67160;SDS011;54088;52.238;21.104;2022-12-11T12:29:04;19.20;;;10.05;;
67160;SDS011;54088;52.238;21.104;2022-12-11T12:32:07;21.35;;;10.05;;
67160;SDS011;54088;52.238;21.104;2022-12-11T12:35:03;19.65;;;11.00;;
67160;SDS011;54088;52.238;21.104;2022-12-11T12:45:53;25.13;;;11.93;;
67160;SDS011;54088;52.238;21.104;2022-12-11T12:48:43;22.73;;;9.90;;
67160;SDS011;54088;52.238;21.104;2022-12-11T12:51:12;20.02;;;11.02;;
67160;SDS011;54088;52.238;21.104;2022-12-11T12:53:38;23.00;;;10.80;;
67160;SDS011;54088;52.238;21.104;2022-12-11T12:56:08;22.90;;;11.73;;
67160;SDS011;54088;52.238;21.104;2022-12-11T13:01:17;23.77;;;12.68;;
67160;SDS011;54088;52.238;21.104;2022-12-11T13:04:01;23.92;;;12.70;;
67160;SDS011;54088;52.238;21.104;2022-12-11T13:09:15;22.75;;;11.13;;
67160;SDS011;54088;52.238;21.104;2022-12-11T13:11:46;20.92;;;11.60;;
67160;SDS011;54088;52.238;21.104;2022-12-11T13:16:48;23.98;;;12.40;;
67160;SDS011;54088;52.238;21.104;2022-12-11T13:21:54;23.92;;;13.48;;
67160;SDS011;54088;52.238;21.104;2022-12-11T13:24:43;25.65;;;12.98;;
67160;SDS011;54088;52.238;21.104;2022-12-11T13:27:21;23.10;;;12.18;;
67160;SDS011;54088;52.238;21.104;2022-12-11T13:29:49;22.77;;;12.57;;
67160;SDS011;54088;52.238;21.104;2022-12-11T13:34:41;23.05;;;12.07;;
67160;SDS011;54088;52.238;21.104;2022-12-11T13:37:20;25.35;;;13.50;;
67160;SDS011;54088;52.238;21.104;2022-12-11T13:40:07;23.88;;;12.07;;
67160;SDS011;54088;52.238;21.104;2022-12-11T13:42:48;20.13;;;11.38;;
67160;SDS011;54088;52.238;21.104;2022-12-11T13:45:18;20.70;;;11.27;;
67160;SDS011;54088;52.238;21.104;2022-12-11T13:47:47;20.50;;;12.07;;
67160;SDS011;54088;52.238;21.104;2022-12-11T13:50:34;20.85;;;11.88;;
67160;SDS011;54088;52.238;21.104;2022-12-11T13:53:00;22.95;;;11.05;;
67160;SDS011;54088;52.238;21.104;2022-12-11T13:55:31;24.02;;;11.10;;
67160;SDS011;54088;52.238;21.104;2022-12-11T13:57:58;21.42;;;12.02;;
67160;SDS011;54088;52.238;21.104;2022-12-11T14:00:25;21.20;;;11.38;;
67160;SDS011;54088;52.238;21.104;2022-12-11T14:02:53;22.10;;;12.27;;
67160;SDS011;54088;52.238;21.104;2022-12-11T14:05:21;23.95;;;12.05;;
67160;SDS011;54088;52.238;21.104;2022-12-11T14:07:48;20.17;;;11.27;;
67160;SDS011;54088;52.238;21.104;2022-12-11T14:10:26;22.38;;;11.63;;
67160;SDS011;54088;52.238;21.104;2022-12-11T14:15:22;20.90;;;11.18;;
67160;SDS011;54088;52.238;21.104;2022-12-11T14:17:48;21.73;;;11.38;;
67160;SDS011;54088;52.238;21.104;2022-12-11T14:20:17;21.58;;;12.82;;
67160;SDS011;54088;52.238;21.104;2022-12-11T14:22:45;19.70;;;12.18;;
67160;SDS011;54088;52.238;21.104;2022-12-11T14:25:18;21.63;;;12.23;;
67160;SDS011;54088;52.238;21.104;2022-12-11T14:27:47;21.48;;;11.23;;
67160;SDS011;54088;52.238;21.104;2022-12-11T14:30:35;18.33;;;10.57;;
67160;SDS011;54088;52.238;21.104;2022-12-11T14:33:02;22.30;;;12.30;;
67160;SDS011;54088;52.238;21.104;2022-12-11T14:35:33;19.90;;;10.77;;
67160;SDS011;54088;52.238;21.104;2022-12-11T14:38:09;22.88;;;11.00;;
67160;SDS011;54088;52.238;21.104;2022-12-11T14:40:46;19.75;;;10.93;;
67160;SDS011;54088;52.238;21.104;2022-12-11T14:43:21;19.08;;;10.95;;
67160;SDS011;54088;52.238;21.104;2022-12-11T14:45:53;20.00;;;11.65;;
67160;SDS011;54088;52.238;21.104;2022-12-11T14:48:22;20.42;;;12.15;;
67160;SDS011;54088;52.238;21.104;2022-12-11T14:50:52;19.52;;;10.35;;
67160;SDS011;54088;52.238;21.104;2022-12-11T14:53:22;19.85;;;11.18;;
67160;SDS011;54088;52.238;21.104;2022-12-11T14:55:55;20.05;;;11.23;;
67160;SDS011;54088;52.238;21.104;2022-12-11T14:58:26;17.70;;;9.43;;
67160;SDS011;54088;52.238;21.104;2022-12-11T15:01:27;18.42;;;10.57;;
67160;SDS011;54088;52.238;21.104;2022-12-11T15:04:15;18.15;;;9.75;;
67160;SDS011;54088;52.238;21.104;2022-12-11T15:06:50;18.23;;;10.10;;
67160;SDS011;54088;52.238;21.104;2022-12-11T15:12:15;16.48;;;9.40;;
67160;SDS011;54088;52.238;21.104;2022-12-11T15:14:53;19.00;;;11.20;;
67160;SDS011;54088;52.238;21.104;2022-12-11T15:17:20;21.88;;;11.30;;
67160;SDS011;54088;52.238;21.104;2022-12-11T15:19:51;16.98;;;9.98;;
67160;SDS011;54088;52.238;21.104;2022-12-11T15:22:28;21.85;;;11.43;;
67160;SDS011;54088;52.238;21.104;2022-12-11T15:24:56;18.95;;;10.52;;
67160;SDS011;54088;52.238;21.104;2022-12-11T15:27:24;18.58;;;10.38;;
67160;SDS011;54088;52.238;21.104;2022-12-11T15:29:52;19.33;;;10.05;;
67160;SDS011;54088;52.238;21.104;2022-12-11T15:32:18;19.13;;;11.05;;
67160;SDS011;54088;52.238;21.104;2022-12-11T15:37:29;20.08;;;10.57;;
67160;SDS011;54088;52.238;21.104;2022-12-11T15:39:57;17.05;;;10.60;;
67160;SDS011;54088;52.238;21.104;2022-12-11T15:42:25;18.33;;;10.40;;
67160;SDS011;54088;52.238;21.104;2022-12-11T15:44:56;18.50;;;9.48;;
67160;SDS011;54088;52.238;21.104;2022-12-11T15:47:23;18.27;;;10.38;;
67160;SDS011;54088;52.238;21.104;2022-12-11T15:49:58;21.65;;;11.00;;
67160;SDS011;54088;52.238;21.104;2022-12-11T15:52:26;18.98;;;11.35;;
67160;SDS011;54088;52.238;21.104;2022-12-11T15:54:52;19.60;;;10.10;;
67160;SDS011;54088;52.238;21.104;2022-12-11T15:57:18;18.95;;;9.60;;
67160;SDS011;54088;52.238;21.104;2022-12-11T15:59:47;20.08;;;10.38;;
67160;SDS011;54088;52.238;21.104;2022-12-11T16:02:15;20.00;;;10.45;;
67160;SDS011;54088;52.238;21.104;2022-12-11T16:04:41;20.13;;;10.32;;
67160;SDS011;54088;52.238;21.104;2022-12-11T16:10:02;17.95;;;10.05;;